createdAt,value
2023-04-03T00:01:39.449Z,100.00
2023-04-03T00:06:42.742Z,100.00
2023-04-03T00:11:44.360Z,100.00
2023-04-03T00:16:46.090Z,100.00
2023-04-03T00:21:49.140Z,100.00
2023-04-03T00:26:50.737Z,100.00
2023-04-03T00:31:52.468Z,100.00
2023-04-03T00:36:55.689Z,100.00
2023-04-03T00:41:57.497Z,100.00
2023-04-03T00:46:59.360Z,100.00
2023-04-03T00:52:02.776Z,100.00
2023-04-03T00:57:05.551Z,100.00
2023-04-03T01:02:07.600Z,100.00
2023-04-03T01:07:13.530Z,100.00
2023-04-03T01:12:16.390Z,100.00
2023-04-03T01:17:29.982Z,100.00
2023-04-03T01:22:42.935Z,100.00
2023-04-03T01:27:44.585Z,100.00
2023-04-03T01:32:47.651Z,100.00
2023-04-03T01:37:49.346Z,100.00
2023-04-03T01:42:51.087Z,100.00
2023-04-03T01:47:55.414Z,100.00
2023-04-03T01:52:57.502Z,100.00
2023-04-03T01:57:59.492Z,100.00
2023-04-03T02:03:02.698Z,100.00
2023-04-03T02:08:04.860Z,100.00
2023-04-03T02:13:06.820Z,100.00
2023-04-03T02:18:09.932Z,100.00
2023-04-03T02:23:11.598Z,100.00
2023-04-03T02:28:13.262Z,100.00
2023-04-03T02:33:16.316Z,100.00
2023-04-03T02:38:17.957Z,100.00
2023-04-03T02:43:19.671Z,100.00
2023-04-03T02:48:23.052Z,100.00
2023-04-03T02:53:24.921Z,100.00
2023-04-03T02:58:26.590Z,100.00
2023-04-03T03:03:29.582Z,100.00
2023-04-03T03:08:31.206Z,100.00
2023-04-03T03:13:32.907Z,100.00
2023-04-03T03:18:36.602Z,100.00
2023-04-03T03:23:38.279Z,100.00
2023-04-03T03:28:40.750Z,100.00
2023-04-03T03:33:43.910Z,100.00
2023-04-03T03:38:48.383Z,100.00
2023-04-03T03:43:50.087Z,100.00
2023-04-03T03:48:53.079Z,100.00
2023-04-03T03:53:54.703Z,100.00
2023-04-03T03:58:56.403Z,100.00
2023-04-03T04:03:59.518Z,100.00
2023-04-03T04:09:01.191Z,100.00
2023-04-03T04:14:02.880Z,100.00
2023-04-03T04:19:07.707Z,100.00
2023-04-03T04:24:10.753Z,100.00
2023-04-03T04:29:12.621Z,100.00
2023-04-03T04:34:15.988Z,100.00
2023-04-03T04:39:17.627Z,100.00
2023-04-03T04:44:19.319Z,100.00
2023-04-03T04:49:22.331Z,100.00
2023-04-03T04:54:24.082Z,100.00
2023-04-03T04:59:25.895Z,100.00
2023-04-03T05:04:29.108Z,100.00
2023-04-03T05:09:30.746Z,100.00
2023-04-03T05:14:32.501Z,100.00
2023-04-03T05:19:35.504Z,100.00
2023-04-03T05:24:37.155Z,100.00
2023-04-03T05:29:38.836Z,100.00
2023-04-03T05:34:41.961Z,100.00
2023-04-03T05:39:43.581Z,99.48
2023-04-03T05:44:45.269Z,93.83
2023-04-03T05:49:48.473Z,76.59
2023-04-03T05:54:50.171Z,67.43
2023-04-03T05:59:51.936Z,58.89
2023-04-03T06:04:58.049Z,51.96
2023-04-03T06:10:00.023Z,49.27
2023-04-03T06:15:01.684Z,48.51
2023-04-03T06:20:05.917Z,46.20
2023-04-03T06:25:08.539Z,43.41
2023-04-03T06:30:10.654Z,43.48
2023-04-03T06:35:13.675Z,49.40
2023-04-03T06:40:20.513Z,48.67
2023-04-03T06:45:22.098Z,46.03
2023-04-03T06:50:25.212Z,40.83
2023-04-03T06:55:26.859Z,39.59
2023-04-03T07:00:28.700Z,38.49
2023-04-03T07:05:31.981Z,38.06
2023-04-03T07:10:42.827Z,42.16
2023-04-03T07:15:44.692Z,41.90
2023-04-03T07:20:47.989Z,47.13
2023-04-03T07:25:51.096Z,39.61
2023-04-03T07:30:54.927Z,39.65
2023-04-03T07:35:57.953Z,42.86
2023-04-03T07:40:59.572Z,44.54
2023-04-03T07:46:01.375Z,46.05
2023-04-03T07:51:05.602Z,48.64
2023-04-03T07:56:07.502Z,49.79
2023-04-03T08:01:09.110Z,54.86
2023-04-03T08:06:16.008Z,53.11
2023-04-03T08:11:18.333Z,51.15
2023-04-03T08:16:23.365Z,52.35
2023-04-03T08:21:26.619Z,51.71
2023-04-03T08:26:28.386Z,53.10
2023-04-03T08:31:30.210Z,53.41
2023-04-03T08:36:33.480Z,54.06
2023-04-03T08:41:37.325Z,53.57
2023-04-03T08:46:53.817Z,57.34
2023-04-03T08:51:58.899Z,53.34
2023-04-03T08:57:04.494Z,54.75
2023-04-03T09:02:24.423Z,54.84
2023-04-03T09:07:36.791Z,54.01
2023-04-03T09:12:42.037Z,53.81
2023-04-03T09:17:54.269Z,52.64
2023-04-03T09:22:58.584Z,53.70
2023-04-03T09:28:00.896Z,56.13
2023-04-03T09:33:02.668Z,54.62
2023-04-03T09:38:21.540Z,52.25
2023-04-03T09:43:27.357Z,54.65
2023-04-03T09:48:29.240Z,55.63
2023-04-03T09:53:37.801Z,55.68
2023-04-03T09:58:49.859Z,53.46
2023-04-03T10:04:05.648Z,53.74
2023-04-03T10:09:18.829Z,52.68
2023-04-03T10:14:20.494Z,53.99
2023-04-03T10:19:35.018Z,53.38
2023-04-03T10:24:48.540Z,53.35
2023-04-03T10:29:56.094Z,52.19
2023-04-03T10:35:09.105Z,49.16
2023-04-03T10:40:23.323Z,53.31
2023-04-03T10:45:29.686Z,52.35
2023-04-03T10:50:40.781Z,52.06
2023-04-03T10:55:51.909Z,51.03
2023-04-03T11:00:57.567Z,50.52
2023-04-03T11:06:00.698Z,51.80
2023-04-03T11:11:08.036Z,49.30
2023-04-03T11:16:09.982Z,51.61
2023-04-03T11:21:20.381Z,52.57
2023-04-03T11:26:28.303Z,50.46
2023-04-03T11:31:48.625Z,51.39
2023-04-03T11:36:54.920Z,51.11
2023-04-03T11:42:15.684Z,49.86
2023-04-03T11:47:45.576Z,52.83
2023-04-03T11:53:02.477Z,48.93
2023-04-03T11:58:15.299Z,49.13
2023-04-03T12:04:01.849Z,47.48
2023-04-03T12:09:24.258Z,49.01
2023-04-03T12:14:28.740Z,49.11
2023-04-03T12:19:42.373Z,48.41
2023-04-03T12:24:45.992Z,47.78
2023-04-03T12:29:55.273Z,46.38
2023-04-03T12:35:08.575Z,46.33
2023-04-03T12:40:17.911Z,45.25
2023-04-03T12:45:23.016Z,45.15
2023-04-03T12:50:28.166Z,46.74
2023-04-03T12:55:29.864Z,45.41
2023-04-03T13:00:36.752Z,47.15
2023-04-03T13:05:39.689Z,45.53
2023-04-03T13:10:51.009Z,46.51
2023-04-03T13:15:54.555Z,44.25
2023-04-03T13:21:04.063Z,43.99
2023-04-03T13:26:06.758Z,45.48
2023-04-03T13:31:20.215Z,45.67
2023-04-03T13:36:24.229Z,45.51
2023-04-03T13:41:30.083Z,44.78
2023-04-03T13:46:33.353Z,46.30
2023-04-03T13:51:39.990Z,45.76
2023-04-03T13:56:42.093Z,45.06
2023-04-03T14:01:49.102Z,48.28
2023-04-03T14:06:51.116Z,43.91
2023-04-03T14:11:55.657Z,44.28
2023-04-03T14:17:01.638Z,45.14
2023-04-03T14:22:13.950Z,48.90
2023-04-03T14:27:19.439Z,44.97
2023-04-03T14:32:25.012Z,44.76
2023-04-03T14:37:29.531Z,46.43
2023-04-03T14:42:33.587Z,43.00
2023-04-03T14:47:41.792Z,44.45
2023-04-03T14:52:44.777Z,43.86
2023-04-03T14:57:46.944Z,44.35
2023-04-03T15:02:50.499Z,42.52
2023-04-03T15:07:55.906Z,42.97
2023-04-03T15:12:58.727Z,44.73
2023-04-03T15:18:01.997Z,45.05
2023-04-03T15:23:03.811Z,45.82
2023-04-03T15:28:05.719Z,45.27
2023-04-03T15:33:08.848Z,45.50
2023-04-03T15:38:11.105Z,44.73
2023-04-03T15:43:12.832Z,44.42
2023-04-03T15:48:16.491Z,44.26
2023-04-03T15:53:18.194Z,46.36
2023-04-03T15:58:19.883Z,45.61
2023-04-03T16:03:23.305Z,46.48
2023-04-03T16:08:25.145Z,44.51
2023-04-03T16:13:27.052Z,47.28
2023-04-03T16:18:30.722Z,46.65
2023-04-03T16:23:32.470Z,45.22
2023-04-03T16:28:34.129Z,45.69
2023-04-03T16:33:37.503Z,46.32
2023-04-03T16:38:39.154Z,45.46
2023-04-03T16:48:43.941Z,45.36
2023-04-03T16:53:47.358Z,44.80
2023-04-03T16:58:49.125Z,46.30
2023-04-03T17:03:52.400Z,45.68
2023-04-03T17:08:54.263Z,45.32
2023-04-03T17:13:56.033Z,45.91
2023-04-03T17:18:59.249Z,46.25
2023-04-03T17:24:04.241Z,46.06
2023-04-03T17:29:07.735Z,45.62
2023-04-03T17:34:11.225Z,46.72
2023-04-03T17:39:13.598Z,46.52
2023-04-03T17:44:15.593Z,50.42
2023-04-03T17:49:18.923Z,47.41
2023-04-03T17:54:20.606Z,47.41
2023-04-03T17:59:22.470Z,52.41
2023-04-03T18:04:25.847Z,47.85
2023-04-03T18:09:31.502Z,48.05
2023-04-03T18:14:35.291Z,50.53
2023-04-03T18:19:38.448Z,51.22
2023-04-03T18:24:41.053Z,50.45
2023-04-03T18:29:44.955Z,52.40
2023-04-03T18:34:48.121Z,52.94
2023-04-03T18:39:49.940Z,51.20
2023-04-03T18:44:55.177Z,54.42
2023-04-03T18:49:58.689Z,52.23
2023-04-03T18:55:00.395Z,53.64
2023-04-03T19:00:02.301Z,55.67
2023-04-03T19:05:07.578Z,55.09
2023-04-03T19:10:10.455Z,58.62
2023-04-03T19:15:13.065Z,58.74
2023-04-03T19:20:16.410Z,59.39
2023-04-03T19:25:18.235Z,60.52
2023-04-03T19:30:20.122Z,62.26
2023-04-03T19:35:23.198Z,64.82
2023-04-03T19:40:25.292Z,63.59
2023-04-03T19:45:27.182Z,64.02
2023-04-03T19:50:30.162Z,65.26
2023-04-03T19:55:31.792Z,66.48
2023-04-03T20:00:33.523Z,67.11
2023-04-03T20:05:36.873Z,67.48
2023-04-03T20:10:38.710Z,67.27
2023-04-03T20:15:41.832Z,68.41
2023-04-03T20:20:45.393Z,70.30
2023-04-03T20:26:01.463Z,69.69
2023-04-03T20:31:08.163Z,69.70
2023-04-03T20:36:11.313Z,71.21
2023-04-03T20:41:13.422Z,70.23
2023-04-03T20:46:15.495Z,71.59
2023-04-03T20:51:20.118Z,71.83
2023-04-03T20:56:21.798Z,70.17
2023-04-03T21:01:24.385Z,71.42
2023-04-03T21:07:04.683Z,70.97
2023-04-03T21:12:43.434Z,71.12
2023-04-03T21:18:16.076Z,73.52
2023-04-03T21:23:17.832Z,70.77
2023-04-03T21:28:19.590Z,69.52
2023-04-03T21:33:22.580Z,69.67
2023-04-03T21:38:24.266Z,70.47
2023-04-03T21:43:26.038Z,68.40
2023-04-03T21:48:29.179Z,67.11
2023-04-03T21:53:31.031Z,67.86
2023-04-03T21:58:33.331Z,69.29
2023-04-03T22:03:36.376Z,67.90
2023-04-03T22:08:38.431Z,68.80
2023-04-03T22:13:40.575Z,68.33
2023-04-03T22:18:43.589Z,68.65
2023-04-03T22:23:45.231Z,69.58
2023-04-03T22:28:47.345Z,68.06
2023-04-03T22:33:50.406Z,71.07
2023-04-03T22:38:52.092Z,69.51
2023-04-03T22:43:53.776Z,69.28
2023-04-03T22:48:56.765Z,69.18
2023-04-03T22:53:58.410Z,69.97
2023-04-03T22:59:00.261Z,69.78
2023-04-03T23:04:03.460Z,68.95
2023-04-03T23:09:05.272Z,70.34
2023-04-03T23:14:06.991Z,69.18
2023-04-03T23:19:09.987Z,71.18
2023-04-03T23:24:11.646Z,69.28
2023-04-03T23:29:13.327Z,69.91
2023-04-03T23:34:16.411Z,69.19
2023-04-03T23:39:18.089Z,69.46
2023-04-03T23:44:19.773Z,71.27
2023-04-03T23:49:22.833Z,68.98
2023-04-03T23:54:24.475Z,68.38
2023-04-03T23:59:26.303Z,71.21
